DTW weather

Detroit Metropolitan Wayne County Airport
Detroit, Michigan, United States

Public forecast

Using degrees Fahrenheit for public forecast. Weather courtesy of forecast.io.

METAR (pilot weather report)

Retrieved 2018/11/16 21:19 UTC (21 minutes ago):

KDTW 162119Z 26013KT 3SM HZ SCT012 BKN020 BKN030 03/M01 A2991 RMK AO2 T00331011

TAF (pilot weather forecast)

Retrieved 2018/11/16 18:30 UTC (3 hours ago):

TAF KDTW 161728Z 1618/1724 24013G20KT 4SM BR OVC009 FM162100 27013G20KT P6SM BKN020 OVC030 FM162300 27010KT P6SM SCT025 BKN030 FM170500 25007KT P6SM BKN030 BKN200 FM171500 23008KT 4SM -SN OVC025 FM172000 27006KT 3SM -SN BR OVC020